createdAt,value
2023-03-06T00:01:11.573Z,99363.06
2023-03-06T00:03:39.535Z,99357.38
2023-03-06T00:06:07.889Z,99353.44
2023-03-06T00:08:36.203Z,99356.34
2023-03-06T00:11:04.134Z,99350.19
2023-03-06T00:13:35.188Z,99354.34
2023-03-06T00:16:03.192Z,99354.41
2023-03-06T00:18:31.273Z,99339.22
2023-03-06T00:20:58.959Z,99337.22
2023-03-06T00:23:27.684Z,99338.63
2023-03-06T00:25:55.753Z,99339.91
2023-03-06T00:28:23.560Z,99336.16
2023-03-06T00:30:52.898Z,99335.16
2023-03-06T00:33:20.866Z,99328.09
2023-03-06T00:35:49.284Z,99334.25
2023-03-06T00:38:17.131Z,99332.16
2023-03-06T00:40:45.402Z,99332.69
2023-03-06T00:43:13.436Z,99329.47
2023-03-06T00:45:43.039Z,99326.09
2023-03-06T00:48:12.300Z,99326.91
2023-03-06T00:50:40.204Z,99310.16
2023-03-06T00:53:08.102Z,99315.78
2023-03-06T00:55:35.987Z,99312.81
2023-03-06T00:58:03.855Z,99302.91
2023-03-06T01:00:31.763Z,99311.81
2023-03-06T01:03:00.885Z,99304.03
2023-03-06T01:05:31.191Z,99294.47
2023-03-06T01:08:02.660Z,99293.84
2023-03-06T01:10:30.660Z,99295.41
2023-03-06T01:12:58.652Z,99293.97
2023-03-06T01:15:26.903Z,99282.50
2023-03-06T01:17:55.610Z,99286.41
2023-03-06T01:20:23.886Z,99275.88
2023-03-06T01:22:56.986Z,99273.56
2023-03-06T01:25:24.912Z,99270.16
2023-03-06T01:27:53.313Z,99267.94
2023-03-06T01:30:21.610Z,99263.31
2023-03-06T01:32:49.676Z,99267.53
2023-03-06T01:35:17.999Z,99259.16
2023-03-06T01:37:46.038Z,99252.59
2023-03-06T01:40:15.579Z,99249.28
2023-03-06T01:42:43.332Z,99241.19
2023-03-06T01:45:26.344Z,99237.03
2023-03-06T01:47:54.325Z,99232.53
2023-03-06T01:50:22.241Z,99234.06
2023-03-06T01:52:51.979Z,99231.91
2023-03-06T01:55:22.809Z,99225.28
2023-03-06T01:57:52.779Z,99233.66
2023-03-06T02:02:58.006Z,99223.34
2023-03-06T02:05:26.987Z,99222.63
2023-03-06T02:07:57.401Z,99224.19
2023-03-06T02:10:26.823Z,99213.72
2023-03-06T02:12:55.681Z,99214.44
2023-03-06T02:15:29.017Z,99219.03
2023-03-06T02:17:57.377Z,99213.22
2023-03-06T02:20:28.620Z,99217.38
2023-03-06T02:22:58.335Z,99208.09
2023-03-06T02:25:35.270Z,99210.47
2023-03-06T02:28:04.172Z,99204.19
2023-03-06T02:30:32.735Z,99207.47
2023-03-06T02:33:02.059Z,99209.22
2023-03-06T02:35:31.386Z,99200.81
2023-03-06T02:38:00.016Z,99197.66
2023-03-06T02:40:28.228Z,99192.69
2023-03-06T02:42:58.397Z,99193.56
2023-03-06T02:45:30.921Z,99191.47
2023-03-06T02:47:58.918Z,99185.44
2023-03-06T02:50:27.180Z,99182.25
2023-03-06T02:52:55.394Z,99182.06
2023-03-06T02:55:23.706Z,99174.53
2023-03-06T02:57:54.457Z,99175.16
2023-03-06T03:00:24.246Z,99172.19
2023-03-06T03:02:52.362Z,99174.78
2023-03-06T03:05:21.243Z,99173.41
2023-03-06T03:07:56.115Z,99173.03
2023-03-06T03:10:24.855Z,99166.19
2023-03-06T03:12:52.737Z,99165.09
2023-03-06T03:15:23.449Z,99168.56
2023-03-06T03:17:51.819Z,99173.06
2023-03-06T03:20:20.816Z,99170.31
2023-03-06T03:22:49.272Z,99175.34
2023-03-06T03:25:19.853Z,99163.09
2023-03-06T03:27:48.429Z,99166.53
2023-03-06T03:30:16.839Z,99172.81
2023-03-06T03:32:46.048Z,99165.94
2023-03-06T03:35:14.460Z,99173.81
2023-03-06T03:37:42.741Z,99167.56
2023-03-06T03:40:13.795Z,99162.44
2023-03-06T03:42:41.723Z,99164.72
2023-03-06T03:45:11.587Z,99156.97
2023-03-06T03:47:40.718Z,99167.41
2023-03-06T03:50:11.443Z,99155.66
2023-03-06T03:52:39.743Z,99154.94
2023-03-06T03:55:08.505Z,99152.72
2023-03-06T03:57:39.468Z,99155.13
2023-03-06T04:00:12.132Z,99153.28
2023-03-06T04:02:52.511Z,99146.88
2023-03-06T04:05:34.055Z,99135.50
2023-03-06T04:08:04.348Z,99135.13
2023-03-06T04:10:34.522Z,99130.63
2023-03-06T04:13:03.620Z,99134.75
2023-03-06T04:15:32.878Z,99128.72
2023-03-06T04:18:02.608Z,99124.34
2023-03-06T04:20:31.100Z,99123.63
2023-03-06T04:23:02.709Z,99115.53
2023-03-06T04:25:30.802Z,99123.66
2023-03-06T04:28:01.392Z,99108.91
2023-03-06T04:30:31.036Z,99117.69
2023-03-06T04:33:00.231Z,99116.91
2023-03-06T04:35:28.399Z,99112.00
2023-03-06T04:38:03.725Z,99109.44
2023-03-06T04:40:34.734Z,99109.09
2023-03-06T04:43:03.255Z,99110.00
2023-03-06T04:45:32.397Z,99099.91
2023-03-06T04:48:00.479Z,99102.47
2023-03-06T04:50:32.769Z,99100.19
2023-03-06T04:53:01.453Z,99094.22
2023-03-06T04:55:31.160Z,99094.50
2023-03-06T04:57:59.337Z,99098.22
2023-03-06T05:00:30.691Z,99095.00
2023-03-06T05:02:59.075Z,99095.91
2023-03-06T05:05:27.366Z,99088.97
2023-03-06T05:07:55.764Z,99092.09
2023-03-06T05:10:23.871Z,99093.56
2023-03-06T05:12:53.249Z,99088.53
2023-03-06T05:15:21.454Z,99091.56
2023-03-06T05:17:49.351Z,99082.44
2023-03-06T05:20:18.541Z,99082.19
2023-03-06T05:22:46.464Z,99081.16
2023-03-06T05:25:14.707Z,99084.47
2023-03-06T05:27:42.997Z,99080.97
2023-03-06T05:30:13.846Z,99079.53
2023-03-06T05:32:41.756Z,99082.28
2023-03-06T05:35:10.170Z,99080.66
2023-03-06T05:37:37.949Z,99073.47
2023-03-06T05:40:09.718Z,99073.13
2023-03-06T05:42:37.566Z,99069.28
2023-03-06T05:45:05.671Z,99068.84
2023-03-06T05:47:35.021Z,99063.66
2023-03-06T05:50:02.812Z,99066.97
2023-03-06T05:52:30.788Z,99067.91
2023-03-06T05:54:58.692Z,99067.34
2023-03-06T05:57:26.717Z,99067.06
2023-03-06T05:59:54.529Z,99068.38
2023-03-06T06:02:22.424Z,99062.97
2023-03-06T06:04:51.896Z,99064.06
2023-03-06T06:07:19.604Z,99069.31
2023-03-06T06:09:47.809Z,99062.56
2023-03-06T06:12:16.192Z,99069.09
2023-03-06T06:14:44.067Z,99077.41
2023-03-06T06:17:12.574Z,99073.25
2023-03-06T06:19:40.298Z,99079.41
2023-03-06T06:22:09.773Z,99076.56
2023-03-06T06:24:37.771Z,99071.41
2023-03-06T06:27:06.138Z,99075.06
2023-03-06T06:29:34.089Z,99081.41
2023-03-06T06:32:02.073Z,99078.13
2023-03-06T06:34:30.863Z,99083.19
2023-03-06T06:36:58.894Z,99085.78
2023-03-06T06:39:29.077Z,99082.22
2023-03-06T06:42:19.502Z,99080.25
2023-03-06T06:44:48.552Z,99085.00
2023-03-06T06:47:25.312Z,99083.09
2023-03-06T06:49:54.679Z,99083.44
2023-03-06T06:52:23.276Z,99084.75
2023-03-06T06:54:52.548Z,99090.91
2023-03-06T06:57:20.714Z,99092.56
2023-03-06T06:59:49.265Z,99092.84
2023-03-06T07:02:17.973Z,99085.75
2023-03-06T07:05:02.404Z,99086.13
2023-03-06T07:07:31.481Z,99089.09
2023-03-06T07:10:00.738Z,99092.78
2023-03-06T07:12:28.606Z,99090.31
2023-03-06T07:14:57.142Z,99093.53
2023-03-06T07:17:25.393Z,99086.88
2023-03-06T07:19:53.414Z,99089.06
2023-03-06T07:22:21.436Z,99087.06
2023-03-06T07:24:49.223Z,99090.00
2023-03-06T07:27:18.495Z,99084.13
2023-03-06T07:29:46.962Z,99086.53
2023-03-06T07:32:14.829Z,99084.16
2023-03-06T07:34:44.453Z,99088.56
2023-03-06T07:37:12.723Z,99089.31
2023-03-06T07:39:40.530Z,99085.19
2023-03-06T07:42:08.771Z,99085.75
2023-03-06T07:44:44.508Z,99088.97
2023-03-06T07:47:15.609Z,99092.47
2023-03-06T07:49:43.665Z,99091.47
2023-03-06T07:52:12.799Z,99089.97
2023-03-06T07:54:40.769Z,99089.53
2023-03-06T07:57:08.790Z,99097.50
2023-03-06T07:59:38.519Z,99099.38
2023-03-06T08:02:08.618Z,99097.97
2023-03-06T08:04:36.392Z,99099.09
2023-03-06T08:07:04.209Z,99099.47
2023-03-06T08:09:32.358Z,99103.41
2023-03-06T08:12:00.304Z,99098.47
2023-03-06T08:14:28.818Z,99101.25
2023-03-06T08:16:56.911Z,99101.88
2023-03-06T08:19:26.065Z,99098.38
2023-03-06T08:21:54.185Z,99098.63
2023-03-06T08:24:22.170Z,99106.75
2023-03-06T08:26:49.963Z,99107.75
2023-03-06T08:29:18.021Z,99109.69
2023-03-06T08:31:46.948Z,99105.16
2023-03-06T08:34:15.753Z,99111.75
2023-03-06T08:36:47.578Z,99112.81
2023-03-06T08:39:15.568Z,99110.06
2023-03-06T08:41:43.469Z,99118.53
2023-03-06T08:44:13.452Z,99122.31
2023-03-06T08:46:41.659Z,99124.59
2023-03-06T08:49:10.628Z,99117.09
2023-03-06T08:51:38.404Z,99120.72
2023-03-06T08:54:08.515Z,99119.50
2023-03-06T08:56:36.550Z,99120.41
2023-03-06T08:59:06.275Z,99117.97
2023-03-06T09:01:34.970Z,99121.31
2023-03-06T09:04:04.563Z,99120.75
2023-03-06T09:06:33.441Z,99120.59
2023-03-06T09:09:01.460Z,99122.50
2023-03-06T09:11:31.131Z,99127.97
2023-03-06T09:13:59.319Z,99121.84
2023-03-06T09:16:27.574Z,99112.25
2023-03-06T09:18:55.838Z,99114.19
2023-03-06T09:21:23.934Z,99126.38
2023-03-06T09:23:51.842Z,99122.84
2023-03-06T09:26:19.733Z,99118.00
2023-03-06T09:28:48.596Z,99121.28
2023-03-06T09:31:17.164Z,99124.06
2023-03-06T09:33:45.891Z,99115.84
2023-03-06T09:36:15.515Z,99118.38
2023-03-06T09:38:43.437Z,99117.94
2023-03-06T09:41:17.854Z,99119.91
2023-03-06T09:43:47.853Z,99121.41
2023-03-06T09:46:20.931Z,99118.34
2023-03-06T09:48:54.845Z,99125.63
2023-03-06T09:51:26.159Z,99117.06
2023-03-06T09:53:58.967Z,99124.88
2023-03-06T09:56:32.116Z,99122.63
2023-03-06T09:59:04.372Z,99124.28
2023-03-06T10:01:35.913Z,99132.69
2023-03-06T10:04:10.087Z,99123.34
2023-03-06T10:06:42.516Z,99121.38
2023-03-06T10:09:15.640Z,99120.78
2023-03-06T10:11:46.767Z,99128.59
2023-03-06T10:14:21.488Z,99122.56
2023-03-06T10:16:51.040Z,99131.66
2023-03-06T10:19:20.447Z,99123.44
2023-03-06T10:21:52.406Z,99126.59
2023-03-06T10:24:24.431Z,99117.41
2023-03-06T10:26:56.240Z,99112.19
2023-03-06T10:29:32.216Z,99128.69
2023-03-06T10:32:05.616Z,99116.66
2023-03-06T10:34:34.569Z,99116.19
2023-03-06T10:37:07.255Z,99116.03
2023-03-06T10:39:35.312Z,99111.53
2023-03-06T10:42:03.467Z,99118.88
2023-03-06T10:44:33.223Z,99109.84
2023-03-06T10:47:22.267Z,99114.94
2023-03-06T10:49:58.420Z,99115.75
2023-03-06T10:52:29.861Z,99113.63
2023-03-06T10:55:14.497Z,99110.88
2023-03-06T10:57:43.227Z,99112.81
2023-03-06T11:00:25.175Z,99113.38
2023-03-06T11:03:06.412Z,99107.84
2023-03-06T11:05:34.466Z,99112.72
2023-03-06T11:08:02.562Z,99103.00
2023-03-06T11:10:31.659Z,99110.00
2023-03-06T11:13:00.305Z,99096.06
2023-03-06T11:15:32.291Z,99099.34
2023-03-06T11:18:03.245Z,99097.56
2023-03-06T11:20:49.931Z,99110.97
2023-03-06T11:23:20.228Z,99103.56
2023-03-06T11:25:50.857Z,99101.19
2023-03-06T11:28:22.488Z,99096.81
2023-03-06T11:30:52.744Z,99091.06
2023-03-06T11:33:25.186Z,99093.31
2023-03-06T11:36:00.621Z,99096.28
2023-03-06T11:38:34.313Z,99089.22
2023-03-06T11:41:04.150Z,99095.66
2023-03-06T11:43:36.578Z,99096.94
2023-03-06T11:46:08.333Z,99078.59
2023-03-06T11:48:37.982Z,99087.81
2023-03-06T11:51:13.572Z,99082.34
2023-03-06T11:53:42.073Z,99073.75
2023-03-06T11:56:17.757Z,99068.91
2023-03-06T11:58:57.550Z,99075.28
2023-03-06T12:01:28.810Z,99069.53
2023-03-06T12:04:17.767Z,99071.81
2023-03-06T12:06:55.191Z,99063.25
2023-03-06T12:09:29.886Z,99065.69
2023-03-06T12:12:06.767Z,99054.56
2023-03-06T12:14:42.294Z,99051.97
2023-03-06T12:17:16.058Z,99046.28
2023-03-06T12:19:49.981Z,99048.19
2023-03-06T12:22:23.409Z,99053.78
2023-03-06T12:25:01.784Z,99053.09
2023-03-06T12:27:36.751Z,99042.09
2023-03-06T12:30:24.644Z,99043.91
2023-03-06T12:32:59.964Z,99042.75
2023-03-06T12:35:42.702Z,99035.94
2023-03-06T12:38:25.476Z,99032.97
2023-03-06T12:41:00.369Z,99025.25
2023-03-06T12:43:47.288Z,99028.16
2023-03-06T12:46:16.473Z,99027.19
2023-03-06T12:48:48.472Z,99028.00
2023-03-06T12:51:18.148Z,99013.06
2023-03-06T12:53:49.126Z,99026.03
2023-03-06T12:56:18.481Z,99016.25
2023-03-06T12:58:50.124Z,99024.81
2023-03-06T13:01:32.873Z,99015.88
2023-03-06T13:04:06.741Z,99019.81
2023-03-06T13:06:50.965Z,99017.13
2023-03-06T13:09:25.833Z,99021.44
2023-03-06T13:12:13.552Z,99022.53
2023-03-06T13:14:56.081Z,99014.25
2023-03-06T13:17:41.068Z,99021.38
2023-03-06T13:20:26.129Z,99017.25
2023-03-06T13:22:53.846Z,99011.38
2023-03-06T13:25:52.821Z,98992.75
2023-03-06T13:28:25.025Z,99001.84
2023-03-06T13:30:53.392Z,99001.34
2023-03-06T13:33:39.635Z,98995.78
2023-03-06T13:36:22.976Z,99001.56
2023-03-06T13:39:00.325Z,98997.44
2023-03-06T13:41:52.475Z,99003.75
2023-03-06T13:44:48.884Z,98999.50
2023-03-06T13:47:46.121Z,98996.06
2023-03-06T13:50:35.775Z,98990.88
2023-03-06T13:53:15.736Z,98995.53
2023-03-06T13:55:46.706Z,98992.13
2023-03-06T13:58:31.355Z,98983.09
2023-03-06T14:01:16.000Z,98984.88
2023-03-06T14:03:58.698Z,98987.59
2023-03-06T14:06:49.635Z,98984.06
2023-03-06T14:09:24.027Z,98979.41
2023-03-06T14:11:53.954Z,98977.78
2023-03-06T14:14:25.226Z,98973.09
2023-03-06T14:16:55.059Z,98971.47
2023-03-06T14:19:23.838Z,98976.88
2023-03-06T14:21:56.765Z,98975.41
2023-03-06T14:24:32.881Z,98970.91
2023-03-06T14:27:05.642Z,98957.75
2023-03-06T14:29:34.079Z,98959.66
2023-03-06T14:32:03.010Z,98948.56
2023-03-06T14:34:31.991Z,98960.16
2023-03-06T14:37:02.742Z,98951.66
2023-03-06T14:39:34.677Z,98951.84
2023-03-06T14:42:06.638Z,98962.34
2023-03-06T14:44:36.436Z,98956.59
2023-03-06T14:47:20.639Z,98958.34
2023-03-06T14:49:48.866Z,98951.16
2023-03-06T14:52:21.862Z,98962.19
2023-03-06T14:54:50.074Z,98961.78
2023-03-06T14:57:20.582Z,98961.22
2023-03-06T14:59:51.104Z,98963.41
2023-03-06T15:02:20.520Z,98965.16
2023-03-06T15:04:51.614Z,98961.59
2023-03-06T15:07:25.160Z,98953.06
2023-03-06T15:09:53.989Z,98960.13
2023-03-06T15:12:36.065Z,98960.72
2023-03-06T15:15:06.097Z,98956.72
2023-03-06T15:17:39.832Z,98962.44
2023-03-06T15:20:11.986Z,98963.63
2023-03-06T15:22:42.468Z,98965.97
2023-03-06T15:25:22.379Z,98960.72
2023-03-06T15:27:52.660Z,98963.91
2023-03-06T15:30:27.497Z,98955.84
2023-03-06T15:33:10.357Z,98958.09
2023-03-06T15:35:39.422Z,98969.00
2023-03-06T15:38:26.693Z,98957.78
2023-03-06T15:40:57.236Z,98958.78
2023-03-06T15:43:25.294Z,98968.56
2023-03-06T15:45:57.629Z,98962.75
2023-03-06T15:48:26.669Z,98961.41
2023-03-06T15:50:54.756Z,98956.53
2023-03-06T15:53:23.074Z,98960.16
2023-03-06T15:55:51.625Z,98964.78
2023-03-06T15:58:25.042Z,98967.88
2023-03-06T16:00:52.857Z,98971.84
2023-03-06T16:03:21.017Z,98958.72
2023-03-06T16:05:48.759Z,98966.38
2023-03-06T16:08:16.535Z,98965.75
2023-03-06T16:10:45.522Z,98965.66
2023-03-06T16:13:13.823Z,98961.69
2023-03-06T16:15:47.949Z,98968.06
2023-03-06T16:18:16.613Z,98967.47
2023-03-06T16:20:44.632Z,98959.66
2023-03-06T16:23:12.158Z,98962.09
2023-03-06T16:25:40.971Z,98965.84
2023-03-06T16:28:12.341Z,98966.88
2023-03-06T16:30:40.140Z,98974.63
2023-03-06T16:33:10.382Z,98967.09
2023-03-06T16:35:41.882Z,98964.00
2023-03-06T16:38:10.978Z,98974.81
2023-03-06T16:40:41.357Z,98988.13
2023-03-06T16:43:09.663Z,98984.22
2023-03-06T16:45:38.390Z,98976.16
2023-03-06T16:48:06.359Z,98980.97
2023-03-06T16:50:38.226Z,98976.94
2023-03-06T16:53:06.541Z,98977.97
2023-03-06T16:55:34.493Z,98979.50
2023-03-06T16:58:02.451Z,98978.44
2023-03-06T17:00:35.145Z,98984.00
2023-03-06T17:03:03.435Z,98976.66
2023-03-06T17:05:34.274Z,98978.50
2023-03-06T17:08:04.924Z,98974.78
2023-03-06T17:10:32.703Z,98988.94
2023-03-06T17:13:06.378Z,98980.25
2023-03-06T17:15:34.436Z,98988.09
2023-03-06T17:18:02.428Z,98990.09
2023-03-06T17:20:30.717Z,98980.16
2023-03-06T17:22:58.693Z,98992.28
2023-03-06T17:25:27.683Z,98987.13
2023-03-06T17:27:55.434Z,98987.63
2023-03-06T17:30:23.419Z,98990.28
2023-03-06T17:32:51.309Z,98986.25
2023-03-06T17:35:19.333Z,98986.13
2023-03-06T17:37:47.145Z,98995.41
2023-03-06T17:40:15.583Z,98987.97
2023-03-06T17:42:44.615Z,98990.28
2023-03-06T17:45:12.809Z,98989.56
2023-03-06T17:47:40.812Z,98994.56
2023-03-06T17:50:10.133Z,98999.16
2023-03-06T17:52:38.882Z,98999.59
2023-03-06T17:55:07.590Z,99004.44
2023-03-06T17:57:35.231Z,99009.31
2023-03-06T18:00:06.033Z,99009.44
2023-03-06T18:02:40.116Z,99005.31
2023-03-06T18:05:09.312Z,99002.56
2023-03-06T18:07:37.644Z,99002.44
2023-03-06T18:10:06.239Z,99002.06
2023-03-06T18:12:34.304Z,99004.91
2023-03-06T18:15:02.579Z,98998.88
2023-03-06T18:17:31.817Z,99007.31
2023-03-06T18:19:59.508Z,99006.41
2023-03-06T18:22:27.099Z,99009.72
2023-03-06T18:24:54.808Z,98999.28
2023-03-06T18:27:22.546Z,99006.59
2023-03-06T18:29:52.491Z,99005.25
2023-03-06T18:32:24.744Z,98999.94
2023-03-06T18:34:56.139Z,99007.91
2023-03-06T18:37:28.518Z,99006.47
2023-03-06T18:39:58.516Z,99011.53
2023-03-06T18:42:26.296Z,99002.59
2023-03-06T18:44:54.167Z,99003.50
2023-03-06T18:47:21.963Z,99007.72
2023-03-06T18:49:50.823Z,99004.00
2023-03-06T18:52:20.271Z,99004.47
2023-03-06T18:54:49.940Z,99004.22
2023-03-06T18:57:17.893Z,99007.03
2023-03-06T18:59:45.977Z,99005.72
2023-03-06T19:02:14.392Z,98999.94
2023-03-06T19:04:42.476Z,98995.78
2023-03-06T19:07:10.504Z,98990.09
2023-03-06T19:09:39.854Z,98995.38
2023-03-06T19:12:08.936Z,98996.66
2023-03-06T19:14:37.979Z,98999.56
2023-03-06T19:17:05.767Z,98999.13
2023-03-06T19:19:33.803Z,99000.75
2023-03-06T19:22:01.974Z,98997.69
2023-03-06T19:24:30.125Z,98995.94
2023-03-06T19:26:59.701Z,98995.03
2023-03-06T19:29:28.540Z,98992.63
2023-03-06T19:31:57.325Z,98998.72
2023-03-06T19:37:20.403Z,98994.91
2023-03-06T19:39:49.486Z,99003.59
2023-03-06T19:42:18.852Z,99009.16
2023-03-06T19:44:46.880Z,98998.38
2023-03-06T19:47:14.869Z,99006.81
2023-03-06T19:49:42.850Z,99001.13
2023-03-06T19:52:10.973Z,98994.66
2023-03-06T19:54:38.872Z,98997.88
2023-03-06T19:57:06.833Z,98993.25
2023-03-06T19:59:36.317Z,98997.16
2023-03-06T20:02:04.099Z,99002.59
2023-03-06T20:04:32.549Z,98992.34
2023-03-06T20:07:00.342Z,98998.03
2023-03-06T20:09:28.222Z,98991.91
2023-03-06T20:11:56.192Z,98991.91
2023-03-06T20:14:24.012Z,98982.13
2023-03-06T20:16:53.289Z,98976.75
2023-03-06T20:19:21.832Z,98971.81
2023-03-06T20:21:50.733Z,98973.13
2023-03-06T20:24:18.864Z,98975.50
2023-03-06T20:26:48.732Z,98972.94
2023-03-06T20:29:16.595Z,98968.06
2023-03-06T20:31:44.578Z,98969.88
2023-03-06T20:34:14.032Z,98969.97
2023-03-06T20:36:42.005Z,98973.81
2023-03-06T20:39:12.402Z,98969.78
2023-03-06T20:41:40.440Z,98966.09
2023-03-06T20:44:10.056Z,98965.19
2023-03-06T20:46:38.915Z,98962.28
2023-03-06T20:49:06.794Z,98963.75
2023-03-06T20:51:39.248Z,98964.59
2023-03-06T20:54:08.290Z,98966.38
2023-03-06T20:56:37.022Z,98962.66
2023-03-06T20:59:05.835Z,98964.19
2023-03-06T21:01:36.620Z,98963.03
2023-03-06T21:04:05.228Z,98964.13
2023-03-06T21:06:33.188Z,98966.06
2023-03-06T21:09:02.991Z,98959.75
2023-03-06T21:11:31.268Z,98958.53
2023-03-06T21:13:59.064Z,98951.91
2023-03-06T21:16:27.107Z,98953.81
2023-03-06T21:18:55.743Z,98948.19
2023-03-06T21:21:25.119Z,98953.97
2023-03-06T21:23:53.167Z,98946.56
2023-03-06T21:26:23.316Z,98951.31
2023-03-06T21:28:51.097Z,98950.13
2023-03-06T21:31:20.254Z,98942.44
2023-03-06T21:33:49.001Z,98943.06
2023-03-06T21:36:18.535Z,98928.00
2023-03-06T21:38:47.450Z,98931.72
2023-03-06T21:41:16.732Z,98927.84
2023-03-06T21:43:46.031Z,98929.63
2023-03-06T21:46:14.083Z,98932.97
2023-03-06T21:48:42.167Z,98918.41
2023-03-06T21:51:12.192Z,98914.78
2023-03-06T21:53:42.346Z,98913.88
2023-03-06T21:56:10.414Z,98919.06
2023-03-06T21:58:38.680Z,98921.31
2023-03-06T22:01:11.795Z,98910.91
2023-03-06T22:03:39.914Z,98904.81
2023-03-06T22:06:09.514Z,98910.63
2023-03-06T22:08:37.540Z,98906.28
2023-03-06T22:11:09.726Z,98902.50
2023-03-06T22:13:37.796Z,98901.50
2023-03-06T22:16:06.165Z,98904.19
2023-03-06T22:18:35.926Z,98891.38
2023-03-06T22:21:07.599Z,98896.00
2023-03-06T22:23:35.295Z,98893.69
2023-03-06T22:26:04.023Z,98891.63
2023-03-06T22:28:31.988Z,98896.75
2023-03-06T22:31:06.192Z,98894.84
2023-03-06T22:33:36.171Z,98895.34
2023-03-06T22:36:06.318Z,98887.66
2023-03-06T22:38:34.814Z,98885.59
2023-03-06T22:41:03.242Z,98887.38
2023-03-06T22:43:31.299Z,98883.13
2023-03-06T22:46:01.511Z,98878.97
2023-03-06T22:48:31.788Z,98880.03
2023-03-06T22:51:04.987Z,98881.00
2023-03-06T22:53:32.919Z,98874.41
2023-03-06T22:56:00.825Z,98881.75
2023-03-06T22:58:34.269Z,98872.31
2023-03-06T23:01:05.197Z,98880.63
2023-03-06T23:03:35.639Z,98866.00
2023-03-06T23:06:07.378Z,98870.19
2023-03-06T23:08:35.039Z,98871.72
2023-03-06T23:11:03.518Z,98866.69
2023-03-06T23:13:50.048Z,98864.97
2023-03-06T23:16:36.907Z,98859.75
2023-03-06T23:19:23.345Z,98850.78
2023-03-06T23:22:11.276Z,98855.06
2023-03-06T23:24:57.702Z,98854.28
2023-03-06T23:27:25.589Z,98850.66
2023-03-06T23:29:55.389Z,98865.78
2023-03-06T23:32:24.269Z,98852.84
2023-03-06T23:34:52.212Z,98854.25
2023-03-06T23:37:21.305Z,98856.09
2023-03-06T23:39:49.208Z,98858.31
2023-03-06T23:42:16.821Z,98858.22
2023-03-06T23:44:48.122Z,98854.59
2023-03-06T23:47:17.165Z,98862.53
2023-03-06T23:49:44.893Z,98852.97
2023-03-06T23:52:12.750Z,98846.34
2023-03-06T23:54:42.165Z,98847.66
2023-03-06T23:57:10.067Z,98853.34
2023-03-06T23:59:38.739Z,98851.13
